createdAt,value
2022-12-26T00:00:20.238Z,100230.06
2022-12-26T00:02:46.710Z,100227.19
2022-12-26T00:05:13.107Z,100219.13
2022-12-26T00:07:39.505Z,100198.44
2022-12-26T00:10:06.422Z,100197.59
2022-12-26T00:12:32.901Z,100179.59
2022-12-26T00:14:59.276Z,100182.28
2022-12-26T00:17:25.653Z,100193.88
2022-12-26T00:19:52.004Z,100188.50
2022-12-26T00:22:18.373Z,100191.00
2022-12-26T00:24:44.725Z,100199.06
2022-12-26T00:27:11.077Z,100195.38
2022-12-26T00:29:37.409Z,100204.28
2022-12-26T00:32:24.831Z,100216.53
2022-12-26T00:34:51.157Z,100217.56
2022-12-26T00:37:17.474Z,100219.22
2022-12-26T00:39:43.897Z,100213.00
2022-12-26T00:42:10.225Z,100222.94
2022-12-26T00:44:36.563Z,100215.88
2022-12-26T00:47:03.027Z,100220.44
2022-12-26T00:49:29.415Z,100201.75
2022-12-26T00:52:15.764Z,100211.53
2022-12-26T00:54:42.080Z,100210.69
2022-12-26T00:57:08.412Z,100207.34
2022-12-26T00:59:34.797Z,100213.56
2022-12-26T01:02:01.364Z,100210.22
2022-12-26T01:04:28.145Z,100212.06
2022-12-26T01:06:54.508Z,100213.94
2022-12-26T01:09:20.870Z,100211.41
2022-12-26T01:11:47.180Z,100211.41
2022-12-26T01:14:17.839Z,100217.81
2022-12-26T01:16:46.031Z,100227.09
2022-12-26T01:19:13.776Z,100219.19
2022-12-26T01:21:40.901Z,100222.09
2022-12-26T01:24:07.535Z,100230.31
2022-12-26T01:26:33.911Z,100232.19
2022-12-26T01:29:00.296Z,100237.75
2022-12-26T01:31:26.772Z,100233.22
2022-12-26T01:33:53.169Z,100236.91
2022-12-26T01:36:19.537Z,100241.47
2022-12-26T01:38:46.461Z,100236.09
2022-12-26T01:41:22.351Z,100249.53
2022-12-26T01:43:59.199Z,100247.31
2022-12-26T01:46:44.651Z,100252.88
2022-12-26T01:49:16.206Z,100267.34
2022-12-26T01:51:48.241Z,100261.31
2022-12-26T01:54:40.391Z,100256.13
2022-12-26T01:57:07.362Z,100259.63
2022-12-26T01:59:37.773Z,100248.03
2022-12-26T02:02:05.061Z,100252.75
2022-12-26T02:04:57.416Z,100254.44
2022-12-26T02:07:24.569Z,100247.59
2022-12-26T02:09:51.144Z,100244.03
2022-12-26T02:12:33.871Z,100249.25
2022-12-26T02:15:11.953Z,100249.06
2022-12-26T02:17:40.651Z,100244.69
2022-12-26T02:20:22.335Z,100238.47
2022-12-26T02:23:13.056Z,100242.00
2022-12-26T02:26:11.041Z,100249.91
2022-12-26T02:28:52.407Z,100259.84
2022-12-26T02:31:28.534Z,100260.84
2022-12-26T02:34:15.566Z,100262.53
2022-12-26T02:37:15.736Z,100258.16
2022-12-26T02:40:01.180Z,100275.97
2022-12-26T02:42:33.578Z,100273.28
2022-12-26T02:45:37.230Z,100274.28
2022-12-26T02:48:16.937Z,100271.59
2022-12-26T02:51:27.343Z,100266.22
2022-12-26T02:54:18.349Z,100267.91
2022-12-26T02:57:10.381Z,100270.59
2022-12-26T03:00:04.560Z,100274.94
2022-12-26T03:03:07.964Z,100275.78
2022-12-26T03:05:58.722Z,100286.38
2022-12-26T03:08:50.399Z,100282.84
2022-12-26T03:11:35.064Z,100268.53
2022-12-26T03:14:21.540Z,100269.19
2022-12-26T03:17:11.286Z,100267.53
2022-12-26T03:19:58.054Z,100263.81
2022-12-26T03:22:50.749Z,100261.13
2022-12-26T03:25:54.649Z,100264.66
2022-12-26T03:28:22.392Z,100259.28
2022-12-26T03:30:49.008Z,100268.38
2022-12-26T03:33:34.922Z,100272.91
2022-12-26T03:36:02.649Z,100278.31
2022-12-26T03:38:51.153Z,100281.00
2022-12-26T03:41:48.366Z,100290.72
2022-12-26T03:44:39.749Z,100283.69
2022-12-26T03:47:36.573Z,100279.31
2022-12-26T03:50:25.350Z,100286.19
2022-12-26T03:53:31.312Z,100287.38
2022-12-26T03:56:26.333Z,100279.88
2022-12-26T03:59:34.111Z,100282.06
2022-12-26T04:02:25.666Z,100297.53
2022-12-26T04:05:14.222Z,100289.84
2022-12-26T04:08:03.567Z,100300.78
2022-12-26T04:10:53.525Z,100297.28
2022-12-26T04:13:48.438Z,100294.59
2022-12-26T04:16:42.331Z,100276.75
2022-12-26T04:19:25.157Z,100275.91
2022-12-26T04:22:26.344Z,100283.16
2022-12-26T04:25:50.155Z,100266.53
2022-12-26T04:28:32.595Z,100270.78
2022-12-26T04:31:26.162Z,100266.94
2022-12-26T04:34:19.139Z,100288.34
2022-12-26T04:37:20.356Z,100293.75
2022-12-26T04:40:09.505Z,100308.59
2022-12-26T04:42:56.453Z,100305.22
2022-12-26T04:45:23.608Z,100296.50
2022-12-26T04:48:09.767Z,100279.53
2022-12-26T04:50:36.336Z,100294.47
2022-12-26T04:53:02.711Z,100292.63
2022-12-26T04:55:31.722Z,100303.03
2022-12-26T04:57:59.265Z,100313.59
2022-12-26T05:00:27.917Z,100318.63
2022-12-26T05:03:18.787Z,100319.28
2022-12-26T05:06:07.162Z,100327.00
2022-12-26T05:08:57.133Z,100319.59
2022-12-26T05:11:23.776Z,100318.56
2022-12-26T05:13:53.060Z,100327.50
2022-12-26T05:16:38.773Z,100331.03
2022-12-26T05:19:24.343Z,100316.09
2022-12-26T05:22:10.163Z,100315.56
2022-12-26T05:24:59.929Z,100329.38
2022-12-26T05:27:54.361Z,100334.44
2022-12-26T05:30:21.114Z,100348.59
2022-12-26T05:33:05.936Z,100347.63
2022-12-26T05:35:33.964Z,100336.56
2022-12-26T05:38:00.832Z,100340.59
2022-12-26T05:40:27.290Z,100338.59
2022-12-26T05:42:53.623Z,100345.13
2022-12-26T05:45:20.271Z,100338.28
2022-12-26T05:47:51.575Z,100339.28
2022-12-26T05:50:18.446Z,100338.28
2022-12-26T05:52:44.808Z,100336.59
2022-12-26T05:55:11.296Z,100344.50
2022-12-26T05:57:37.672Z,100354.22
2022-12-26T06:00:04.559Z,100351.38
2022-12-26T06:02:31.046Z,100352.03
2022-12-26T06:04:57.427Z,100349.16
2022-12-26T06:07:23.786Z,100343.63
2022-12-26T06:09:50.090Z,100339.91
2022-12-26T06:12:16.442Z,100344.28
2022-12-26T06:14:42.815Z,100342.44
2022-12-26T06:17:09.126Z,100350.50
2022-12-26T06:19:35.622Z,100349.00
2022-12-26T06:22:02.736Z,100342.78
2022-12-26T06:24:29.114Z,100345.47
2022-12-26T06:26:55.449Z,100327.19
2022-12-26T06:29:21.830Z,100324.50
2022-12-26T06:31:48.167Z,100317.44
2022-12-26T06:34:14.564Z,100309.38
2022-12-26T06:36:41.041Z,100299.66
2022-12-26T06:39:07.524Z,100300.66
2022-12-26T06:41:33.900Z,100298.16
2022-12-26T06:44:00.291Z,100301.19
2022-12-26T06:46:27.288Z,100306.91
2022-12-26T06:48:53.924Z,100305.41
2022-12-26T06:51:25.131Z,100309.44
2022-12-26T06:53:53.181Z,100308.13
2022-12-26T06:56:24.699Z,100307.63
2022-12-26T06:58:55.806Z,100300.06
2022-12-26T07:01:22.955Z,100312.19
2022-12-26T07:03:52.119Z,100313.53
2022-12-26T07:06:26.388Z,100327.16
2022-12-26T07:08:54.711Z,100337.06
2022-12-26T07:11:26.837Z,100339.91
2022-12-26T07:13:54.594Z,100349.81
2022-12-26T07:16:21.595Z,100346.31
2022-12-26T07:18:48.032Z,100356.03
2022-12-26T07:21:15.977Z,100357.88
2022-12-26T07:23:42.440Z,100357.88
2022-12-26T07:26:09.203Z,100362.22
2022-12-26T07:28:35.588Z,100380.03
2022-12-26T07:31:02.745Z,100370.28
2022-12-26T07:33:30.143Z,100374.66
2022-12-26T07:36:04.516Z,100373.81
2022-12-26T07:38:31.817Z,100371.47
2022-12-26T07:40:58.453Z,100367.94
2022-12-26T07:43:25.641Z,100370.78
2022-12-26T07:45:52.651Z,100372.81
2022-12-26T07:48:19.068Z,100370.31
2022-12-26T07:50:47.242Z,100377.69
2022-12-26T07:53:14.919Z,100378.03
2022-12-26T07:55:41.677Z,100378.38
2022-12-26T07:58:08.008Z,100386.59
2022-12-26T08:00:34.413Z,100382.38
2022-12-26T08:03:06.933Z,100382.56
2022-12-26T08:05:34.323Z,100369.31
2022-12-26T08:08:00.703Z,100378.03
2022-12-26T08:10:27.143Z,100371.66
2022-12-26T08:12:53.495Z,100380.38
2022-12-26T08:15:19.833Z,100373.00
2022-12-26T08:17:46.163Z,100382.56
2022-12-26T08:20:12.501Z,100384.91
2022-12-26T08:22:38.852Z,100385.38
2022-12-26T08:25:05.899Z,100379.72
2022-12-26T08:27:32.268Z,100394.44
2022-12-26T08:29:58.612Z,100390.44
2022-12-26T08:32:24.920Z,100396.97
2022-12-26T08:34:51.314Z,100395.78
2022-12-26T08:37:17.692Z,100408.88
2022-12-26T08:39:44.559Z,100405.84
2022-12-26T08:42:10.881Z,100401.81
2022-12-26T08:44:37.278Z,100413.19
2022-12-26T08:47:03.694Z,100416.22
2022-12-26T08:49:30.228Z,100414.88
2022-12-26T08:51:56.550Z,100411.84
2022-12-26T08:54:22.890Z,100407.81
2022-12-26T08:56:49.296Z,100405.44
2022-12-26T08:59:15.688Z,100393.34
2022-12-26T09:01:42.181Z,100394.69
2022-12-26T09:04:08.634Z,100394.00
2022-12-26T09:06:36.831Z,100384.59
2022-12-26T09:09:04.388Z,100384.91
2022-12-26T09:11:31.580Z,100381.50
2022-12-26T09:14:00.290Z,100386.34
2022-12-26T09:16:34.064Z,100372.34
2022-12-26T09:19:04.829Z,100384.47
2022-12-26T09:21:32.117Z,100383.44
2022-12-26T09:24:03.981Z,100384.94
2022-12-26T09:26:30.829Z,100393.66
2022-12-26T09:28:58.230Z,100401.72
2022-12-26T09:31:28.240Z,100406.94
2022-12-26T09:33:55.119Z,100402.22
2022-12-26T09:36:25.674Z,100408.94
2022-12-26T09:38:54.781Z,100412.94
2022-12-26T09:41:47.625Z,100399.78
2022-12-26T09:44:17.008Z,100400.28
2022-12-26T09:47:06.175Z,100399.09
2022-12-26T09:49:43.231Z,100407.47
2022-12-26T09:52:24.582Z,100408.31
2022-12-26T09:54:56.279Z,100405.63
2022-12-26T09:57:37.836Z,100409.13
2022-12-26T10:00:06.851Z,100405.63
2022-12-26T10:02:34.858Z,100401.06
2022-12-26T10:05:01.616Z,100400.91
2022-12-26T10:07:46.376Z,100399.69
2022-12-26T10:10:41.792Z,100401.84
2022-12-26T10:13:30.124Z,100392.41
2022-12-26T10:16:21.544Z,100393.53
2022-12-26T10:19:03.096Z,100410.00
2022-12-26T10:21:38.583Z,100401.38
2022-12-26T10:24:16.409Z,100406.03
2022-12-26T10:26:49.833Z,100405.66
2022-12-26T10:29:28.076Z,100398.91
2022-12-26T10:31:59.999Z,100406.16
2022-12-26T10:34:32.662Z,100407.84
2022-12-26T10:37:02.623Z,100421.28
2022-12-26T10:39:35.244Z,100416.75
2022-12-26T10:42:29.751Z,100417.56
2022-12-26T10:44:57.766Z,100414.03
2022-12-26T10:47:32.988Z,100415.75
2022-12-26T10:49:59.970Z,100419.06
2022-12-26T10:52:32.153Z,100411.47
2022-12-26T10:55:28.792Z,100413.81
2022-12-26T10:57:52.017Z,100393.59
2022-12-26T11:00:22.566Z,100399.44
2022-12-26T11:03:16.177Z,100408.19
2022-12-26T11:06:07.029Z,100404.28
2022-12-26T11:08:42.989Z,100405.59
2022-12-26T11:11:20.025Z,100399.69
2022-12-26T11:14:00.977Z,100392.06
2022-12-26T11:16:38.312Z,100403.13
2022-12-26T11:19:05.165Z,100397.56
2022-12-26T11:21:34.976Z,100399.72
2022-12-26T11:24:20.094Z,100400.19
2022-12-26T11:26:47.219Z,100389.22
2022-12-26T11:29:16.711Z,100394.25
2022-12-26T11:32:03.240Z,100393.88
2022-12-26T11:34:46.311Z,100381.22
2022-12-26T11:37:26.608Z,100375.84
2022-12-26T11:39:53.884Z,100383.09
2022-12-26T11:42:23.626Z,100388.47
2022-12-26T11:44:55.092Z,100381.59
2022-12-26T11:47:23.874Z,100386.31
2022-12-26T11:50:09.977Z,100385.50
2022-12-26T11:52:46.909Z,100380.47
2022-12-26T11:55:22.461Z,100381.69
2022-12-26T11:58:16.034Z,100382.88
2022-12-26T12:00:51.657Z,100392.19
2022-12-26T12:03:24.442Z,100448.28
2022-12-26T12:06:13.396Z,100448.63
2022-12-26T12:09:06.523Z,100433.91
2022-12-26T12:12:03.743Z,100434.03
2022-12-26T12:15:01.678Z,100432.00
2022-12-26T12:17:54.428Z,100439.03
2022-12-26T12:20:48.812Z,100437.81
2022-12-26T12:23:50.400Z,100440.59
2022-12-26T12:26:43.430Z,100435.44
2022-12-26T12:29:40.520Z,100443.88
2022-12-26T12:32:37.910Z,100456.53
2022-12-26T12:35:28.396Z,100458.19
2022-12-26T12:38:17.511Z,100479.50
2022-12-26T12:40:58.029Z,100487.09
2022-12-26T12:43:41.992Z,100542.34
2022-12-26T12:46:22.453Z,100510.28
2022-12-26T12:49:07.111Z,100512.28
2022-12-26T12:51:46.063Z,100524.38
2022-12-26T12:54:38.568Z,100539.13
2022-12-26T12:57:23.673Z,100536.94
2022-12-26T13:00:16.817Z,100548.13
2022-12-26T13:03:05.647Z,100560.19
2022-12-26T13:06:13.640Z,100563.16
2022-12-26T13:08:52.536Z,100550.72
2022-12-26T13:11:34.961Z,100557.91
2022-12-26T13:14:15.636Z,100557.00
2022-12-26T13:16:46.351Z,100552.16
2022-12-26T13:19:34.845Z,100564.31
2022-12-26T13:22:05.247Z,100556.59
2022-12-26T13:24:45.603Z,100563.31
2022-12-26T13:27:46.699Z,100563.59
2022-12-26T13:30:16.732Z,100575.47
2022-12-26T13:32:46.564Z,100584.81
2022-12-26T13:35:50.647Z,100575.25
2022-12-26T13:38:17.075Z,100578.56
2022-12-26T13:40:47.184Z,100580.56
2022-12-26T13:43:42.997Z,100579.72
2022-12-26T13:46:54.475Z,100601.00
2022-12-26T13:49:37.985Z,100607.88
2022-12-26T13:52:10.403Z,100606.72
2022-12-26T13:54:57.378Z,100619.81
2022-12-26T13:57:44.828Z,100616.84
2022-12-26T14:00:37.020Z,100617.69
2022-12-26T14:03:51.705Z,100618.66
2022-12-26T14:06:29.942Z,100613.47
2022-12-26T14:09:23.855Z,100614.78
2022-12-26T14:11:57.459Z,100607.22
2022-12-26T14:14:58.023Z,100617.41
2022-12-26T14:17:49.226Z,100614.34
2022-12-26T14:20:15.553Z,100623.72
2022-12-26T14:23:11.439Z,100627.53
2022-12-26T14:26:02.146Z,100634.03
2022-12-26T14:28:56.560Z,100638.72
2022-12-26T14:31:31.164Z,100643.56
2022-12-26T14:34:04.124Z,100644.84
2022-12-26T14:36:38.335Z,100648.34
2022-12-26T14:39:22.618Z,100660.22
2022-12-26T14:42:26.053Z,100656.84
2022-12-26T14:44:54.895Z,100659.00
2022-12-26T14:47:42.171Z,100661.84
2022-12-26T14:50:44.215Z,100670.03
2022-12-26T14:53:19.820Z,100683.41
2022-12-26T14:55:56.985Z,100684.56
2022-12-26T14:58:45.607Z,100698.09
2022-12-26T15:01:12.001Z,100691.22
2022-12-26T15:03:44.738Z,100690.38
2022-12-26T15:06:34.444Z,100688.69
2022-12-26T15:09:41.388Z,100690.38
2022-12-26T15:12:45.065Z,100702.09
2022-12-26T15:15:45.354Z,100704.06
2022-12-26T15:18:43.283Z,100703.38
2022-12-26T15:21:35.860Z,100705.34
2022-12-26T15:24:22.806Z,100710.88
2022-12-26T15:27:00.061Z,100710.03
2022-12-26T15:29:32.386Z,100714.00
2022-12-26T15:32:26.931Z,100722.19
2022-12-26T15:35:18.469Z,100722.47
2022-12-26T15:38:03.188Z,100733.50
2022-12-26T15:40:42.880Z,100738.00
2022-12-26T15:43:47.025Z,100747.03
2022-12-26T15:46:43.316Z,100762.25
2022-12-26T15:49:24.939Z,100761.41
2022-12-26T15:52:25.412Z,100761.56
2022-12-26T15:55:23.155Z,100774.09
2022-12-26T15:58:09.383Z,100777.78
2022-12-26T16:00:49.635Z,100788.47
2022-12-26T16:03:33.487Z,100789.31
2022-12-26T16:06:08.659Z,100796.50
2022-12-26T16:08:50.713Z,100803.53
2022-12-26T16:11:28.902Z,100798.19
2022-12-26T16:14:01.585Z,100802.72
2022-12-26T16:16:37.233Z,100800.88
2022-12-26T16:19:19.216Z,100806.22
2022-12-26T16:22:07.840Z,100795.50
2022-12-26T16:24:37.104Z,100809.91
2022-12-26T16:27:07.026Z,100819.91
2022-12-26T16:29:42.460Z,100813.88
2022-12-26T16:32:15.785Z,100815.00
2022-12-26T16:34:43.527Z,100827.13
2022-12-26T16:37:18.021Z,100836.47
2022-12-26T16:39:45.038Z,100832.66
2022-12-26T16:42:31.746Z,100837.59
2022-12-26T16:44:58.981Z,100822.84
2022-12-26T16:47:25.899Z,100822.25
2022-12-26T16:49:53.463Z,100823.56
2022-12-26T16:52:45.866Z,100823.97
2022-12-26T16:55:30.615Z,100826.38
2022-12-26T16:57:59.609Z,100823.44
2022-12-26T17:00:27.160Z,100836.53
2022-12-26T17:02:57.496Z,100844.00
2022-12-26T17:05:34.279Z,100854.00
2022-12-26T17:08:02.895Z,100848.94
2022-12-26T17:10:37.673Z,100855.13
2022-12-26T17:13:07.263Z,100859.63
2022-12-26T17:15:37.258Z,100866.69
2022-12-26T17:18:37.894Z,100872.59
2022-12-26T17:21:29.885Z,100875.97
2022-12-26T17:24:14.945Z,100868.63
2022-12-26T17:26:44.012Z,100871.16
2022-12-26T17:29:46.603Z,100883.41
2022-12-26T17:32:17.157Z,100883.28
2022-12-26T17:34:43.977Z,100877.94
2022-12-26T17:37:31.070Z,100888.63
2022-12-26T17:40:19.347Z,100896.66
2022-12-26T17:42:52.406Z,100909.44
2022-12-26T17:45:27.405Z,100915.09
2022-12-26T17:47:55.219Z,100923.53
2022-12-26T17:50:23.421Z,100920.44
2022-12-26T17:52:50.384Z,100926.06
2022-12-26T17:55:27.100Z,100926.34
2022-12-26T17:57:53.713Z,100931.25
2022-12-26T18:00:22.926Z,100937.72
2022-12-26T18:02:50.305Z,100933.78
2022-12-26T18:05:20.338Z,100937.56
2022-12-26T18:07:49.274Z,100943.16
2022-12-26T18:10:20.273Z,100936.97
2022-12-26T18:12:47.183Z,100938.94
2022-12-26T18:15:14.804Z,100945.25
2022-12-26T18:17:41.450Z,100943.44
2022-12-26T18:20:15.646Z,100946.81
2022-12-26T18:22:42.127Z,100955.69
2022-12-26T18:25:12.003Z,100948.50
2022-12-26T18:27:38.521Z,100961.75
2022-12-26T18:30:05.389Z,100970.50
2022-12-26T18:32:33.504Z,100964.19
2022-12-26T18:35:00.609Z,100971.19
2022-12-26T18:37:29.441Z,100968.41
2022-12-26T18:39:56.180Z,100973.88
2022-12-26T18:42:23.910Z,100968.53
2022-12-26T18:44:50.310Z,100981.91
2022-12-26T18:47:20.329Z,100991.88
2022-12-26T18:49:47.084Z,100986.78
2022-12-26T18:52:17.830Z,100990.69
2022-12-26T18:54:44.855Z,100983.94
2022-12-26T18:57:17.539Z,100997.69
2022-12-26T18:59:44.004Z,101004.44
2022-12-26T19:02:17.460Z,101006.66
2022-12-26T19:04:44.198Z,101007.06
2022-12-26T19:07:11.239Z,101011.00
2022-12-26T19:09:37.660Z,101013.94
2022-12-26T19:12:04.232Z,101012.38
2022-12-26T19:14:30.564Z,101015.28
2022-12-26T19:16:57.018Z,101014.72
2022-12-26T19:19:26.521Z,101033.81
2022-12-26T19:21:52.885Z,101046.84
2022-12-26T19:24:19.262Z,101044.84
2022-12-26T19:26:45.708Z,101049.00
2022-12-26T19:29:12.239Z,101058.38
2022-12-26T19:31:38.864Z,101060.00
2022-12-26T19:34:05.579Z,101062.47
2022-12-26T19:36:33.456Z,101068.31
2022-12-26T19:38:59.820Z,101067.97
2022-12-26T19:41:26.155Z,101072.13
2022-12-26T19:44:00.151Z,101078.81
2022-12-26T19:46:27.182Z,101070.47
2022-12-26T19:48:54.476Z,101085.16
2022-12-26T19:51:21.723Z,101082.00
2022-12-26T19:53:48.711Z,101087.84
2022-12-26T19:56:16.118Z,101085.69
2022-12-26T19:58:43.356Z,101087.88
2022-12-26T20:01:22.617Z,101094.69
2022-12-26T20:03:49.510Z,101099.41
2022-12-26T20:06:21.580Z,101105.09
2022-12-26T20:08:49.404Z,101106.44
2022-12-26T20:11:22.720Z,101113.97
2022-12-26T20:13:49.724Z,101107.31
2022-12-26T20:16:54.697Z,101112.00
2022-12-26T20:19:09.148Z,101129.09
2022-12-26T20:21:35.923Z,101121.59
2022-12-26T20:24:02.745Z,101129.81
2022-12-26T20:26:29.603Z,101131.75
2022-12-26T20:28:58.155Z,101139.16
2022-12-26T20:31:24.572Z,101132.25
2022-12-26T20:33:52.212Z,101136.72
2022-12-26T20:36:24.025Z,101145.41
2022-12-26T20:38:52.574Z,101144.59
2022-12-26T20:41:18.905Z,101151.72
2022-12-26T20:43:46.808Z,101160.72
2022-12-26T20:46:16.042Z,101158.03
2022-12-26T20:48:43.591Z,101155.47
2022-12-26T20:51:15.836Z,101160.72
2022-12-26T20:53:42.531Z,101155.38
2022-12-26T20:56:09.317Z,101153.56
2022-12-26T20:58:36.346Z,101146.28
2022-12-26T21:01:14.242Z,101155.72
2022-12-26T21:03:41.112Z,101156.47
2022-12-26T21:06:11.963Z,101166.88
2022-12-26T21:08:39.785Z,101162.16
2022-12-26T21:11:11.543Z,101168.97
2022-12-26T21:13:39.343Z,101173.19
2022-12-26T21:16:10.826Z,101172.97
2022-12-26T21:18:37.733Z,101170.19
2022-12-26T21:21:06.673Z,101173.56
2022-12-26T21:23:33.544Z,101166.66
2022-12-26T21:26:00.266Z,101171.28
2022-12-26T21:28:26.611Z,101175.97
2022-12-26T21:30:53.084Z,101178.16
2022-12-26T21:33:19.557Z,101180.22
2022-12-26T21:35:50.652Z,101183.34
2022-12-26T21:38:18.253Z,101190.84
2022-12-26T21:40:44.557Z,101193.13
2022-12-26T21:43:10.979Z,101199.78
2022-12-26T21:45:40.489Z,101203.75
2022-12-26T21:48:07.434Z,101204.22
2022-12-26T21:50:34.595Z,101201.91
2022-12-26T21:53:01.081Z,101211.91
2022-12-26T21:55:29.871Z,101203.31
2022-12-26T21:57:57.962Z,101194.69
2022-12-26T22:00:24.759Z,101198.44
2022-12-26T22:03:23.916Z,101196.72
2022-12-26T22:05:50.367Z,101198.53
2022-12-26T22:08:16.831Z,101195.25
2022-12-26T22:11:04.359Z,101194.53
2022-12-26T22:13:38.460Z,101196.44
2022-12-26T22:16:07.734Z,101205.50
2022-12-26T22:18:42.262Z,101205.63
2022-12-26T22:21:20.836Z,101202.47
2022-12-26T22:23:50.455Z,101207.03
2022-12-26T22:26:17.529Z,101198.44
2022-12-26T22:28:44.167Z,101205.69
2022-12-26T22:31:21.114Z,101220.81
2022-12-26T22:33:48.330Z,101218.38
2022-12-26T22:36:14.720Z,101222.97
2022-12-26T22:38:41.098Z,101236.28
2022-12-26T22:41:07.479Z,101232.97
2022-12-26T22:43:34.054Z,101242.75
2022-12-26T22:46:00.490Z,101237.56
2022-12-26T22:48:27.499Z,101235.00
2022-12-26T22:50:54.938Z,101235.84
2022-12-26T22:53:26.392Z,101255.31
2022-12-26T22:55:58.241Z,101246.50
2022-12-26T22:58:24.848Z,101253.63
2022-12-26T23:00:51.165Z,101253.63
2022-12-26T23:03:18.636Z,101257.28
2022-12-26T23:05:45.739Z,101255.44
2022-12-26T23:08:19.544Z,101267.78
2022-12-26T23:10:46.724Z,101262.47
2022-12-26T23:13:14.598Z,101266.84
2022-12-26T23:15:52.224Z,101271.09
2022-12-26T23:18:45.407Z,101264.78
2022-12-26T23:21:42.028Z,101261.91
2022-12-26T23:24:21.917Z,101266.06
2022-12-26T23:26:52.398Z,101266.16
2022-12-26T23:29:40.910Z,101268.94
2022-12-26T23:32:09.979Z,101278.09
2022-12-26T23:34:36.351Z,101282.81
2022-12-26T23:37:03.367Z,101277.69
2022-12-26T23:39:29.724Z,101282.38
2022-12-26T23:41:56.090Z,101278.97
2022-12-26T23:44:22.482Z,101280.03
2022-12-26T23:46:48.929Z,101275.69
2022-12-26T23:49:16.335Z,101275.78
2022-12-26T23:51:42.914Z,101280.25
2022-12-26T23:54:10.055Z,101271.53
2022-12-26T23:56:36.976Z,101275.16
2022-12-26T23:59:03.804Z,101270.69
